Time;durP1;ratioP1;P1;durP2;ratioP2;P2;SDS_P1;SDS_P2;PMS_P1;PMS_P2;Temp;Humidity;BMP_temperature;BMP_pressure;BME280_temperature;BME280_humidity;BME280_pressure;Samples;Min_cycle;Max_cycle;Signal;HPM_P1;HPM_P2
2022/10/04 00:02:28;;;;;;;37.35;12.55;;;;;;;11.94;100.00;102245.97;4991983;28;20294;-41
2022/10/04 00:04:56;;;;;;;39.30;12.18;;;;;;;11.95;100.00;102236.88;4999311;28;20032;-41
2022/10/04 00:07:37;;;;;;;41.67;11.70;;;;;;;11.98;100.00;102236.56;4962509;28;1075249;-41
2022/10/04 00:10:12;;;;;;;45.40;12.05;;;;;;;11.98;100.00;102236.56;4991809;28;20042;-40
2022/10/04 00:12:44;;;;;;;52.45;12.35;;;;;;;11.97;100.00;102239.41;4981918;28;20681;-40
2022/10/04 00:15:26;;;;;;;46.65;13.15;;;;;;;11.99;100.00;102238.25;4999534;28;20037;-40
2022/10/04 00:18:00;;;;;;;40.78;11.82;;;;;;;12.00;100.00;102231.00;4982683;28;20469;-40
2022/10/04 00:21:02;;;;;;;42.78;14.02;;;;;;;12.02;100.00;102221.75;4982889;28;20035;-40
2022/10/04 00:23:40;;;;;;;38.13;12.48;;;;;;;12.05;100.00;102221.44;4882741;29;20101;-40
2022/10/04 00:26:10;;;;;;;;;;;;;;;12.06;100.00;102215.03;4969491;28;20351;-40
2022/10/04 00:28:35;;;;;;;40.88;12.20;;;;;;;12.09;100.00;102227.38;4990479;28;20285;-41
2022/10/04 00:31:14;;;;;;;38.33;13.25;;;;;;;12.07;100.00;102219.44;5000164;28;20060;-42
2022/10/04 00:34:00;;;;;;;45.58;15.13;;;;;;;12.05;100.00;102234.09;4999052;28;20206;-40
2022/10/04 00:36:28;;;;;;;53.30;15.23;;;;;;;12.02;100.00;102243.34;4969388;28;20069;-40
2022/10/04 00:39:08;;;;;;;;;;;;;;;12.00;100.00;102237.25;5000046;28;20030;-40
2022/10/04 00:41:48;;;;;;;45.85;17.42;;;;;;;11.99;100.00;102232.03;4999541;28;19917;-40
2022/10/04 00:44:36;;;;;;;60.08;16.63;;;;;;;11.98;100.00;102223.09;4991959;28;20026;-41
2022/10/04 00:47:02;;;;;;;;;;;;;;;11.95;100.00;102215.28;4982474;28;20117;-42
2022/10/04 00:49:32;;;;;;;47.33;15.88;;;;;;;11.92;100.00;102223.69;4998452;28;19972;-41
2022/10/04 00:52:19;;;;;;;44.72;16.38;;;;;;;11.90;100.00;102217.63;4999689;28;20416;-41
2022/10/04 00:54:49;;;;;;;49.50;17.07;;;;;;;11.89;100.00;102209.69;4999051;28;20037;-41
2022/10/04 00:57:28;;;;;;;54.13;16.45;;;;;;;11.87;100.00;102207.13;4981893;28;20031;-39
2022/10/04 01:00:15;;;;;;;55.03;16.50;;;;;;;11.85;100.00;102214.53;4981716;28;20026;-40
2022/10/04 01:02:41;;;;;;;37.17;15.23;;;;;;;11.82;100.00;102209.41;5000019;28;20049;-39
2022/10/04 01:05:15;;;;;;;51.45;16.25;;;;;;;11.81;100.00;102210.44;4999180;28;20030;-41
2022/10/04 01:07:45;;;;;;;51.83;17.40;;;;;;;11.75;100.00;102198.41;4981127;28;20061;-41
2022/10/04 01:10:25;;;;;;;52.22;18.17;;;;;;;11.72;100.00;102204.13;4981369;28;20031;-41
2022/10/04 01:12:59;;;;;;;43.50;16.95;;;;;;;11.68;100.00;102196.50;4999070;28;20092;-41
2022/10/04 01:15:47;;;;;;;57.10;17.08;;;;;;;11.64;100.00;102196.81;4998238;28;20069;-41
2022/10/04 01:18:34;;;;;;;57.40;16.63;;;;;;;11.63;100.00;102188.88;4988015;28;20093;-42
2022/10/04 01:21:02;;;;;;;53.67;17.25;;;;;;;11.62;100.00;102184.50;4998174;28;20038;-41
2022/10/04 01:23:34;;;;;;;;;;;;;;;11.61;100.00;102186.34;4999421;28;20040;-39
2022/10/04 01:26:00;;;;;;;54.38;18.63;;;;;;;11.60;100.00;102190.03;4999033;28;19940;-40
2022/10/04 01:28:26;;;;;;;54.95;18.60;;;;;;;11.59;100.00;102177.56;4998884;28;20122;-41
2022/10/04 01:30:51;;;;;;;56.55;18.02;;;;;;;11.58;100.00;102175.84;4980423;28;20120;-41
2022/10/04 01:33:17;;;;;;;57.60;18.70;;;;;;;11.58;100.00;102165.06;4998508;28;20033;-41
2022/10/04 01:35:43;;;;;;;60.47;18.85;;;;;;;11.59;100.00;102161.38;4998089;28;20061;-41
2022/10/04 01:38:10;;;;;;;50.03;18.73;;;;;;;11.60;100.00;102154.97;4998446;28;20477;-41
2022/10/04 01:40:42;;;;;;;50.03;16.70;;;;;;;11.59;100.00;102145.22;4997557;28;20031;-41
2022/10/04 01:43:09;;;;;;;49.47;17.30;;;;;;;11.58;100.00;102143.50;4998964;28;20077;-43
2022/10/04 01:45:41;;;;;;;44.13;16.15;;;;;;;11.57;100.00;102139.13;4997602;28;20089;-41
2022/10/04 01:48:19;;;;;;;52.03;17.13;;;;;;;11.60;100.00;102128.00;4980363;28;20057;-41
2022/10/04 01:50:58;;;;;;;38.28;15.43;;;;;;;11.58;100.00;102127.31;4997579;28;20240;-41
2022/10/04 01:53:33;;;;;;;39.50;15.75;;;;;;;11.57;100.00;102120.25;4980877;28;20062;-41
2022/10/04 01:56:13;;;;;;;46.70;15.10;;;;;;;11.60;100.00;102109.13;4980440;28;20026;-41
2022/10/04 01:58:47;;;;;;;49.65;16.85;;;;;;;11.58;100.00;102102.22;4980164;28;20026;-41
2022/10/04 02:01:26;;;;;;;59.85;18.95;;;;;;;11.57;100.00;102098.66;4977727;28;20055;-41
2022/10/04 02:03:58;;;;;;;46.40;16.38;;;;;;;11.57;100.00;102097.84;4979789;28;20482;-41
2022/10/04 02:06:24;;;;;;;45.58;16.98;;;;;;;11.53;100.00;102088.34;4961541;28;20051;-41
2022/10/04 02:08:53;;;;;;;40.63;16.10;;;;;;;11.49;100.00;102079.75;4993637;28;20104;-41
2022/10/04 02:11:20;;;;;;;47.95;17.27;;;;;;;11.47;100.00;102076.34;4980565;28;20113;-41
2022/10/04 02:13:47;;;;;;;48.38;15.98;;;;;;;11.42;100.00;102067.88;4989753;28;20034;-41
2022/10/04 02:16:13;;;;;;;46.47;15.85;;;;;;;11.35;100.00;102058.75;4983832;28;20046;-41
2022/10/04 02:18:40;;;;;;;47.33;16.88;;;;;;;11.30;100.00;102063.78;4976202;28;20030;-41
2022/10/04 02:21:07;;;;;;;49.75;17.02;;;;;;;11.25;100.00;102056.16;4981791;28;20030;-41
2022/10/04 02:23:34;;;;;;;42.72;17.40;;;;;;;11.21;100.00;102060.16;4980964;28;20525;-41
2022/10/04 02:26:04;;;;;;;61.58;18.38;;;;;;;11.15;100.00;102056.22;4981044;28;20046;-41
2022/10/04 02:28:31;;;;;;;47.72;16.88;;;;;;;11.11;100.00;102059.38;4980780;28;20072;-41
2022/10/04 02:33:44;;;;;;;46.55;17.25;;;;;;;11.03;100.00;102060.16;4983829;28;20077;-41
2022/10/04 02:36:10;;;;;;;50.47;18.23;;;;;;;10.98;100.00;102054.44;4963982;28;20035;-41
2022/10/04 02:38:41;;;;;;;54.30;19.60;;;;;;;10.91;100.00;102039.88;4981724;28;20034;-41
2022/10/04 02:41:19;;;;;;;65.32;17.67;;;;;;;10.87;100.00;102027.72;4979573;28;20030;-41
2022/10/04 02:43:50;;;;;;;47.50;18.90;;;;;;;10.83;100.00;102034.41;4980091;28;20084;-42
2022/10/04 02:46:16;;;;;;;48.22;18.27;;;;;;;10.79;100.00;102038.41;4979758;28;20033;-41
2022/10/04 02:48:54;;;;;;;59.58;19.35;;;;;;;10.75;100.00;102033.34;4996938;28;20081;-41
2022/10/04 02:51:32;;;;;;;54.90;20.13;;;;;;;10.72;100.00;102030.13;4979973;28;20037;-41
2022/10/04 02:54:21;;;;;;;62.05;21.45;;;;;;;10.69;100.00;102039.34;4997316;28;20041;-40
2022/10/04 02:56:52;;;;;;;63.40;20.27;;;;;;;10.67;100.00;102041.34;4960378;28;20038;-41
2022/10/04 02:59:17;;;;;;;54.85;21.75;;;;;;;10.66;100.00;102036.09;4987130;28;20045;-40
2022/10/04 03:01:56;;;;;;;66.95;23.60;;;;;;;10.63;100.00;102033.72;4997151;28;20030;-41
2022/10/04 03:04:24;;;;;;;65.38;22.73;;;;;;;10.60;100.00;102029.47;4997255;28;20041;-40
2022/10/04 03:06:51;;;;;;;59.05;22.23;;;;;;;10.61;100.00;102020.41;4979868;28;20057;-40
2022/10/04 03:09:19;;;;;;;58.38;23.08;;;;;;;10.62;100.00;102014.03;4997347;28;20453;-41
2022/10/04 03:11:45;;;;;;;67.28;23.48;;;;;;;10.62;100.00;102007.81;4997501;28;20027;-40
2022/10/04 03:14:22;;;;;;;63.30;22.20;;;;;;;10.63;100.00;102007.63;4996755;28;20062;-40
2022/10/04 03:16:52;;;;;;;63.17;23.07;;;;;;;10.65;100.00;102000.25;4979431;28;20088;-41
2022/10/04 03:19:19;;;;;;;68.55;23.08;;;;;;;10.68;100.00;101982.94;4979809;28;20092;-40
2022/10/04 03:21:46;;;;;;;78.28;23.48;;;;;;;10.74;100.00;101982.31;4997367;28;20058;-41
2022/10/04 03:24:19;;;;;;;55.63;22.27;;;;;;;10.76;100.00;101983.00;4996341;28;20481;-41
2022/10/04 03:26:47;;;;;;;61.63;21.80;;;;;;;10.79;100.00;101979.16;4978937;28;20413;-41
2022/10/04 03:29:13;;;;;;;61.30;23.33;;;;;;;10.82;100.00;101981.53;4996969;28;20046;-40
2022/10/04 03:31:47;;;;;;;57.90;22.83;;;;;;;10.84;100.00;101982.25;4979547;28;20466;-39
2022/10/04 03:34:15;;;;;;;62.03;21.63;;;;;;;10.84;100.00;101971.47;4979006;28;20034;-40
2022/10/04 03:36:42;;;;;;;65.32;23.58;;;;;;;10.89;100.00;101974.53;4979840;28;20482;-41
2022/10/04 03:39:09;;;;;;;65.00;23.20;;;;;;;10.87;100.00;101966.59;4979426;28;20046;-40
2022/10/04 03:41:37;;;;;;;61.38;23.02;;;;;;;10.86;100.00;101978.38;4979414;28;20129;-40
2022/10/04 03:44:03;;;;;;;59.40;23.13;;;;;;;10.85;100.00;101979.41;4978627;28;20042;-41
2022/10/04 03:46:28;;;;;;;68.43;23.52;;;;;;;10.83;100.00;101983.25;4979090;28;20034;-41
2022/10/04 03:48:54;;;;;;;58.90;22.73;;;;;;;10.82;100.00;101984.22;4996471;28;20061;-40
2022/10/04 03:51:22;;;;;;;63.47;22.25;;;;;;;10.81;100.00;101979.84;4979847;28;20058;-40
2022/10/04 03:53:48;;;;;;;;;;;;;;;10.79;100.00;101979.16;4996723;28;20034;-40
2022/10/04 03:56:34;;;;;;;59.70;22.20;;;;;;;10.77;100.00;101979.34;4996269;28;19932;-42
2022/10/04 03:59:06;;;;;;;66.15;23.85;;;;;;;10.72;100.00;101981.66;4985141;28;20038;-41
2022/10/04 04:01:45;;;;;;;57.35;22.13;;;;;;;10.67;100.00;101987.50;4979690;28;20042;-41
2022/10/04 04:04:39;;;;;;;52.28;21.63;;;;;;;10.63;100.00;101986.09;4975413;28;20034;-41
2022/10/04 04:07:18;;;;;;;56.25;21.90;;;;;;;10.58;100.00;101976.78;4995108;28;20054;-41
2022/10/04 04:09:50;;;;;;;74.95;25.02;;;;;;;10.55;100.00;101981.47;5000271;28;20105;-41
2022/10/04 04:12:26;;;;;;;73.43;25.25;;;;;;;10.54;100.00;101984.34;4994676;28;20070;-39
2022/10/04 04:14:52;;;;;;;77.35;26.48;;;;;;;10.52;100.00;101981.78;5000172;28;20133;-40
2022/10/04 04:17:27;;;;;;;63.03;25.05;;;;;;;10.52;100.00;101980.94;4978909;28;20113;-42
2022/10/04 04:19:57;;;;;;;78.80;30.08;;;;;;;10.51;100.00;101979.25;4982436;28;20052;-42
2022/10/04 04:22:22;;;;;;;76.15;29.80;;;;;;;10.51;100.00;101981.97;4999495;28;20026;-40
2022/10/04 04:24:49;;;;;;;73.97;29.02;;;;;;;10.53;100.00;101975.44;4982168;28;20347;-39
2022/10/04 04:27:15;;;;;;;78.50;28.15;;;;;;;10.55;100.00;101983.31;4982945;28;20034;-41
2022/10/04 04:29:46;;;;;;;86.18;33.47;;;;;;;10.55;100.00;101978.78;4981801;28;20030;-42
2022/10/04 04:32:22;;;;;;;81.95;31.65;;;;;;;10.57;100.00;101986.72;4996368;28;20026;-40
2022/10/04 04:34:52;;;;;;;82.93;32.28;;;;;;;10.60;100.00;101981.03;4996799;28;20059;-40
2022/10/04 04:37:18;;;;;;;87.82;31.98;;;;;;;10.61;100.00;101984.56;4998025;28;20049;-41
2022/10/04 04:39:47;;;;;;;95.07;33.03;;;;;;;10.61;100.00;101974.66;4998623;28;20474;-41
2022/10/04 04:42:24;;;;;;;78.13;32.03;;;;;;;10.62;100.00;101987.09;4999156;28;20033;-40
2022/10/04 04:44:54;;;;;;;79.95;31.30;;;;;;;10.62;100.00;101981.72;4983290;28;20433;-41
2022/10/04 04:47:39;;;;;;;77.30;31.80;;;;;;;10.62;100.00;101979.03;4999684;28;20137;-41
2022/10/04 04:50:07;;;;;;;77.32;29.92;;;;;;;10.65;100.00;101975.19;4983510;28;20437;-40
2022/10/04 04:52:33;;;;;;;81.30;29.20;;;;;;;10.62;100.00;101984.41;4982260;28;20148;-41
2022/10/04 04:54:59;;;;;;;69.10;28.20;;;;;;;10.62;100.00;101979.03;4998300;28;20027;-41
2022/10/04 04:57:24;;;;;;;77.80;28.25;;;;;;;10.60;100.00;101970.25;4982360;28;20034;-41
2022/10/04 04:59:56;;;;;;;70.43;27.00;;;;;;;10.58;100.00;101963.34;4999918;28;20041;-42
2022/10/04 05:02:29;;;;;;;80.60;27.88;;;;;;;10.57;100.00;101961.66;4980259;28;20065;-41
2022/10/04 05:05:21;;;;;;;83.18;28.27;;;;;;;10.59;100.00;101968.56;4998237;28;20437;-41
2022/10/04 05:07:47;;;;;;;77.00;28.23;;;;;;;10.56;100.00;101966.19;4983602;28;20058;-41
2022/10/04 05:10:33;;;;;;;74.10;25.88;;;;;;;10.54;100.00;101960.94;4976858;28;20030;-40
2022/10/04 05:12:59;;;;;;;80.88;27.60;;;;;;;10.53;100.00;101969.16;4999979;28;20041;-41
2022/10/04 05:15:27;;;;;;;91.10;28.13;;;;;;;10.51;100.00;101971.19;4974217;28;20105;-41
2022/10/04 05:17:53;;;;;;;87.55;27.40;;;;;;;10.50;100.00;101964.94;4970136;28;20034;-41
2022/10/04 05:20:18;;;;;;;80.82;28.08;;;;;;;10.49;100.00;101962.41;4997534;28;20519;-41
2022/10/04 05:22:46;;;;;;;83.55;28.45;;;;;;;10.49;100.00;101962.41;4980583;28;20045;-40
2022/10/04 05:25:27;;;;;;;75.32;28.02;;;;;;;10.48;100.00;101960.75;4978096;28;20040;-40
2022/10/04 05:27:52;;;;;;;83.10;28.05;;;;;;;10.47;100.00;101959.03;4997946;28;20422;-39
2022/10/04 05:30:40;;;;;;;74.60;27.77;;;;;;;10.45;100.00;101955.63;4981150;28;20051;-42
2022/10/04 05:33:13;;;;;;;89.15;27.38;;;;;;;10.45;100.00;101950.25;4980870;28;20397;-41
2022/10/04 05:36:09;;;;;;;85.10;28.00;;;;;;;10.40;100.00;101947.19;4997979;28;20040;-41
2022/10/04 05:38:50;;;;;;;79.93;29.77;;;;;;;10.36;100.00;101940.44;4976522;28;20067;-40
2022/10/04 05:41:16;;;;;;;90.20;30.17;;;;;;;10.36;100.00;101932.34;4980312;28;20220;-41
2022/10/04 05:43:46;;;;;;;78.00;28.20;;;;;;;10.29;100.00;101938.38;4997095;28;20220;-39
2022/10/04 05:46:22;;;;;;;80.25;29.23;;;;;;;10.26;100.00;101937.78;4979413;28;20026;-42
2022/10/04 05:48:56;;;;;;;92.32;28.98;;;;;;;10.23;100.00;101930.84;4977332;28;20026;-40
2022/10/04 05:51:28;;;;;;;86.60;30.17;;;;;;;10.21;100.00;101929.31;4996822;28;20450;-40
2022/10/04 05:53:55;;;;;;;78.32;28.30;;;;;;;10.22;100.00;101937.25;4996656;28;20030;-41
2022/10/04 05:56:24;;;;;;;84.20;29.38;;;;;;;10.29;100.00;101937.50;4997248;28;20034;-40
2022/10/04 05:59:21;;;;;;;95.72;29.75;;;;;;;10.27;100.00;101920.66;4996510;28;20046;-41
2022/10/04 06:01:59;;;;;;;78.45;28.85;;;;;;;10.25;100.00;101930.72;4982003;28;20030;-40
2022/10/04 06:04:59;;;;;;;92.88;29.42;;;;;;;10.26;100.00;101925.16;4999790;28;20030;-40
2022/10/04 06:07:29;;;;;;;82.47;29.55;;;;;;;10.26;100.00;101924.31;5010720;28;20058;-40
2022/10/04 06:10:32;;;;;;;96.30;29.25;;;;;;;10.26;100.00;101917.09;4980977;28;20474;-40
2022/10/04 06:13:33;;;;;;;85.38;29.83;;;;;;;10.24;100.00;101907.47;4989896;28;20030;-40
2022/10/04 06:16:04;;;;;;;83.68;29.88;;;;;;;10.22;100.00;101904.94;4996659;28;20030;-39
2022/10/04 06:18:45;;;;;;;80.88;30.95;;;;;;;10.23;100.00;101903.94;4986005;28;20057;-41
2022/10/04 06:21:56;;;;;;;86.20;31.33;;;;;;;10.22;100.00;101910.34;4981540;28;20034;-42
2022/10/04 06:24:26;;;;;;;89.63;30.98;;;;;;;10.24;100.00;101920.94;4977822;28;20076;-40
2022/10/04 06:27:07;;;;;;;92.50;30.67;;;;;;;10.24;100.00;101929.88;4977762;28;20027;-40
2022/10/04 06:29:38;;;;;;;88.68;31.17;;;;;;;10.26;100.00;101918.94;4976521;28;20509;-40
2022/10/04 06:32:41;;;;;;;93.85;31.17;;;;;;;10.32;100.00;101919.22;4978168;28;20027;-42
2022/10/04 06:35:10;;;;;;;92.00;32.08;;;;;;;10.45;100.00;101912.56;4976664;28;20054;-40
2022/10/04 06:37:57;;;;;;;93.78;32.17;;;;;;;10.48;100.00;101909.59;4995770;28;20030;-41
2022/10/04 06:40:53;;;;;;;96.40;33.20;;;;;;;10.59;100.00;101906.66;4996491;28;20497;-40
2022/10/04 06:44:03;;;;;;;100.75;33.47;;;;;;;10.68;100.00;101908.41;4954757;28;20482;-41
2022/10/04 06:46:47;;;;;;;82.88;31.38;;;;;;;10.73;100.00;101914.16;4994063;28;20047;-42
2022/10/04 06:49:48;;;;;;;87.75;31.55;;;;;;;10.79;100.00;101909.16;4995673;28;20026;-40
2022/10/04 06:52:28;;;;;;;93.18;30.95;;;;;;;10.90;100.00;101906.19;4977750;28;20044;-41
2022/10/04 06:55:18;;;;;;;95.43;34.00;;;;;;;10.98;100.00;101908.97;4978215;28;20030;-41
2022/10/04 06:57:43;;;;;;;90.18;32.05;;;;;;;11.06;100.00;101903.63;4995892;28;20117;-41
2022/10/04 07:00:15;;;;;;;85.32;32.00;;;;;;;11.11;100.00;101909.38;4994055;28;20509;-40
2022/10/04 07:02:42;;;;;;;86.10;31.60;;;;;;;11.24;100.00;101918.88;4996641;28;20026;-41
2022/10/04 07:05:33;;;;;;;70.90;29.85;;;;;;;11.40;100.00;101918.94;4974460;28;20030;-41
2022/10/04 07:08:31;;;;;;;91.03;32.08;;;;;;;11.48;100.00;101916.31;4941418;28;20123;-40
2022/10/04 07:11:04;;;;;;;86.38;30.52;;;;;;;11.60;100.00;101920.38;4967996;28;20086;-40
2022/10/04 07:13:37;;;;;;;80.72;29.13;;;;;;;11.78;100.00;101924.84;4975231;28;20126;-40
2022/10/04 07:16:15;;;;;;;70.72;27.13;;;;;;;11.76;100.00;101916.06;4970534;28;20055;-40
2022/10/04 07:19:11;;;;;;;70.35;27.25;;;;;;;11.87;100.00;101931.97;4973137;28;20069;-41
2022/10/04 07:21:47;;;;;;;84.05;26.50;;;;;;;11.99;100.00;101940.63;4977889;28;20027;-40
2022/10/04 07:24:20;;;;;;;72.03;25.38;;;;;;;12.02;99.38;101919.53;4975663;28;20031;-40
2022/10/04 07:26:48;;;;;;;75.05;25.77;;;;;;;12.42;98.22;101915.22;4976783;28;20344;-39
2022/10/04 07:29:20;;;;;;;53.72;22.10;;;;;;;13.05;95.08;101912.81;4992345;28;20027;-39
2022/10/04 07:32:14;;;;;;;71.25;23.23;;;;;;;13.76;90.09;101916.50;4982223;28;20101;-41
2022/10/04 07:34:45;;;;;;;63.85;23.98;;;;;;;14.53;86.74;101921.94;4945337;28;20035;-40
2022/10/04 07:37:12;;;;;;;43.90;19.33;;;;;;;14.93;83.51;101933.47;4960302;28;20062;-40
2022/10/04 07:39:56;;;;;;;57.70;20.50;;;;;;;15.21;80.50;101927.41;4977331;28;20466;-40
2022/10/04 07:42:31;;;;;;;53.75;19.40;;;;;;;16.47;75.65;101926.25;4976791;28;20031;-40
2022/10/04 07:45:20;;;;;;;49.50;18.30;;;;;;;15.71;76.04;101932.09;4979754;28;20023;-40
2022/10/04 07:47:45;;;;;;;52.92;21.08;;;;;;;14.82;79.67;101928.47;4981342;28;20114;-41
2022/10/04 07:50:50;;;;;;;50.80;20.27;;;;;;;14.50;82.84;101933.09;4979562;28;20397;-40
2022/10/04 07:53:17;;;;;;;61.08;21.10;;;;;;;14.30;84.61;101929.19;4978502;28;20034;-41
2022/10/04 07:56:07;;;;;;;43.30;20.15;;;;;;;14.05;85.25;101934.75;4961982;28;20567;-40
2022/10/04 07:58:43;;;;;;;55.00;21.73;;;;;;;13.98;85.36;101937.34;4973812;28;20039;-40
2022/10/04 08:01:29;;;;;;;48.08;21.17;;;;;;;14.09;86.71;101940.69;4978805;28;20375;-41
2022/10/04 08:04:00;;;;;;;52.67;22.25;;;;;;;14.40;85.91;101937.91;4981560;28;20502;-40
2022/10/04 08:06:45;;;;;;;41.22;18.65;;;;;;;15.18;82.53;101930.50;4980960;28;20030;-40
2022/10/04 08:09:23;;;;;;;52.33;18.58;;;;;;;16.31;79.59;101927.34;5000549;28;20117;-40
2022/10/04 08:12:19;;;;;;;45.33;19.00;;;;;;;16.19;75.64;101926.16;4983834;28;20042;-40
2022/10/04 08:15:12;;;;;;;39.97;18.75;;;;;;;16.06;75.78;101909.72;4989432;28;20053;-40
2022/10/04 08:17:49;;;;;;;37.97;17.80;;;;;;;16.26;74.20;101916.22;4996610;28;20030;-39
2022/10/04 08:20:26;;;;;;;48.60;17.95;;;;;;;16.65;72.96;101913.03;4982237;28;20068;-40
2022/10/04 08:23:05;;;;;;;43.85;18.80;;;;;;;16.07;74.57;101908.72;4999474;28;20023;-40
2022/10/04 08:25:42;;;;;;;48.58;21.15;;;;;;;15.28;77.80;101904.78;4996260;28;20030;-40
2022/10/04 08:31:37;;;;;;;51.90;19.42;;;;;;;14.76;80.78;101904.81;5000718;28;20041;-40
2022/10/04 08:34:14;;;;;;;47.20;20.48;;;;;;;14.88;82.37;101906.06;4963500;28;20034;-39
2022/10/04 08:36:46;;;;;;;49.78;18.65;;;;;;;15.41;79.61;101914.16;4999894;28;20042;-40
2022/10/04 08:39:36;;;;;;;45.55;19.50;;;;;;;15.31;77.02;101914.41;4986495;28;20026;-39
2022/10/04 08:42:31;;;;;;;39.08;16.98;;;;;;;16.11;78.05;101912.72;4981104;28;20069;-40
2022/10/04 08:45:03;;;;;;;40.65;16.85;;;;;;;16.26;74.93;101913.50;4995893;28;20038;-40
2022/10/04 08:48:10;;;;;;;49.00;18.80;;;;;;;16.66;72.35;101922.03;4999107;28;20398;-40
2022/10/04 08:51:00;;;;;;;33.67;17.50;;;;;;;17.25;70.38;101921.69;4961770;28;20510;-40
2022/10/04 08:53:41;;;;;;;45.03;17.63;;;;;;;17.55;69.90;101926.88;4999963;28;20076;-41
2022/10/04 08:56:25;;;;;;;35.22;16.55;;;;;;;17.54;68.03;101922.47;4996153;28;20022;-41
2022/10/04 08:59:05;;;;;;;35.05;18.05;;;;;;;17.38;68.47;101922.78;4997856;28;20094;-40
2022/10/04 09:02:01;;;;;;;39.03;17.60;;;;;;;17.03;70.40;101926.31;4999255;28;20033;-40
2022/10/04 09:04:41;;;;;;;42.47;16.83;;;;;;;16.12;72.67;101917.97;4996005;28;20038;-41
2022/10/04 09:07:25;;;;;;;45.05;18.80;;;;;;;15.59;75.49;101914.59;4996361;28;20100;-40
2022/10/04 09:10:05;;;;;;;57.97;18.63;;;;;;;15.32;77.29;101916.97;4990138;28;20140;-40
2022/10/04 09:12:31;;;;;;;40.88;17.67;;;;;;;15.29;77.35;101916.47;4990824;28;20485;-40
2022/10/04 09:15:30;;;;;;;39.75;17.60;;;;;;;15.32;78.85;101913.38;4997042;28;20034;-41
2022/10/04 09:18:06;;;;;;;42.00;17.58;;;;;;;15.12;79.61;101905.81;4979380;28;20121;-40
2022/10/04 09:20:53;;;;;;;32.63;16.85;;;;;;;15.29;79.72;101892.06;4998118;28;20030;-40
2022/10/04 09:23:32;;;;;;;38.05;17.08;;;;;;;15.28;79.22;101887.69;4997394;28;20040;-41
2022/10/04 09:25:57;;;;;;;35.13;16.42;;;;;;;15.20;79.33;101879.63;4999028;28;20092;-41
2022/10/04 09:28:54;;;;;;;40.15;17.60;;;;;;;15.10;79.62;101872.59;4997943;28;20034;-41
2022/10/04 09:31:41;;;;;;;36.20;17.55;;;;;;;14.86;80.33;101872.88;4997738;28;20031;-41
2022/10/04 09:34:22;;;;;;;38.80;17.75;;;;;;;14.79;81.05;101867.34;4980733;28;20049;-41
2022/10/04 09:37:18;;;;;;;51.92;17.83;;;;;;;14.83;80.27;101867.84;4998658;28;20042;-41
2022/10/04 09:40:05;;;;;;;36.22;15.88;;;;;;;15.05;79.69;101883.16;4980115;28;20138;-40
2022/10/04 09:42:39;;;;;;;34.07;16.23;;;;;;;15.18;79.85;101887.94;4993373;28;20245;-41
2022/10/04 09:45:05;;;;;;;39.10;16.67;;;;;;;15.47;79.52;101897.94;4995545;28;20085;-41
2022/10/04 09:47:44;;;;;;;38.35;16.55;;;;;;;15.61;77.79;101895.41;4997753;28;20030;-40
2022/10/04 09:50:25;;;;;;;39.50;16.98;;;;;;;15.68;76.87;101896.34;4997106;28;20042;-41
2022/10/04 09:53:02;;;;;;;42.50;16.08;;;;;;;15.38;77.20;101904.50;4997773;28;20057;-41
2022/10/04 09:55:43;;;;;;;39.42;16.95;;;;;;;15.15;77.63;101894.59;4996586;28;20030;-40
2022/10/04 09:59:02;;;;;;;36.92;16.63;;;;;;;15.17;78.39;101890.88;4998715;28;20076;-41
2022/10/04 10:01:36;;;;;;;38.38;17.02;;;;;;;15.38;78.11;101893.66;4910907;29;20473;-40
2022/10/04 10:04:27;;;;;;;38.33;16.30;;;;;;;15.68;77.52;101893.63;4979093;28;20064;-41
2022/10/04 10:07:22;;;;;;;40.35;17.63;;;;;;;15.73;75.78;101897.47;4996512;28;20050;-40
2022/10/04 10:16:09;;;;;;;45.33;18.42;;;;;;;15.77;77.14;101887.94;4982797;28;20036;-41
2022/10/04 10:18:51;;;;;;;44.92;18.25;;;;;;;15.76;77.54;101896.25;4999880;28;20421;-41
2022/10/04 10:21:25;;;;;;;53.05;19.10;;;;;;;15.74;78.21;101887.44;4999560;28;20031;-40
2022/10/04 10:23:56;;;;;;;42.30;19.02;;;;;;;15.56;77.68;101876.97;4990151;28;20042;-41
2022/10/04 10:26:30;;;;;;;38.67;18.67;;;;;;;15.83;77.96;101870.03;4989286;28;20134;-40
2022/10/04 10:29:05;;;;;;;33.58;15.95;;;;;;;15.98;76.67;101875.41;4997925;28;20026;-40
2022/10/04 10:31:58;;;;;;;45.75;17.13;;;;;;;15.87;74.90;101876.75;4997202;28;20030;-41
2022/10/04 10:34:23;;;;;;;36.80;16.30;;;;;;;15.97;74.21;101865.59;4996646;28;20088;-41
2022/10/04 10:36:51;;;;;;;33.15;14.60;;;;;;;15.84;73.51;101863.56;4997277;28;20109;-41
2022/10/04 10:40:01;;;;;;;36.08;14.77;;;;;;;15.83;73.22;101870.03;4997446;28;20113;-42
2022/10/04 10:42:42;;;;;;;29.65;14.13;;;;;;;15.90;73.75;101864.66;4910920;29;20485;-41
2022/10/04 10:45:26;;;;;;;31.48;11.88;;;;;;;15.95;71.68;101865.75;4901000;29;20052;-41
2022/10/04 10:48:03;;;;;;;27.65;12.60;;;;;;;16.18;70.49;101878.34;4965142;28;20038;-41
2022/10/04 10:50:31;;;;;;;28.55;12.65;;;;;;;16.21;70.39;101878.78;4998248;28;20121;-40
2022/10/04 10:53:28;;;;;;;39.83;14.07;;;;;;;16.11;70.54;101867.38;4997638;28;20026;-40
2022/10/04 10:56:03;;;;;;;29.88;12.50;;;;;;;16.22;70.78;101857.91;4964193;28;20046;-41
2022/10/04 10:58:58;;;;;;;33.60;11.35;;;;;;;16.33;70.57;101861.97;4997654;28;20094;-41
2022/10/04 11:01:52;;;;;;;29.00;13.02;;;;;;;16.22;70.06;101872.31;4978468;28;20038;-41
2022/10/04 11:04:37;;;;;;;31.23;12.38;;;;;;;16.04;70.74;101876.53;4973996;28;20403;-40
2022/10/04 11:07:36;;;;;;;36.08;14.63;;;;;;;16.11;70.09;101878.25;4983731;28;20053;-42
2022/10/04 11:10:38;;;;;;;28.85;12.57;;;;;;;16.14;70.06;101877.88;4978626;28;20093;-40
2022/10/04 11:13:57;;;;;;;27.75;13.60;;;;;;;16.11;71.21;101882.84;4995806;28;20037;-41
2022/10/04 11:17:00;;;;;;;32.20;13.25;;;;;;;16.44;71.80;101875.84;4915427;29;20130;-41
2022/10/04 11:19:29;;;;;;;26.45;13.35;;;;;;;16.62;71.59;101874.56;4913405;29;20032;-41
2022/10/04 11:22:21;;;;;;;31.58;16.02;;;;;;;16.15;71.47;101884.16;4974884;28;20108;-41
2022/10/04 11:24:49;;;;;;;38.15;16.65;;;;;;;16.07;71.97;101870.72;4999746;28;20026;-41
2022/10/04 11:27:27;;;;;;;47.20;17.85;;;;;;;16.25;72.72;101873.81;4999574;28;20061;-41
2022/10/04 11:30:11;;;;;;;43.88;16.55;;;;;;;16.35;73.01;101877.03;5000008;28;20034;-41
2022/10/04 11:33:08;;;;;;;41.17;17.35;;;;;;;16.17;72.45;101873.94;4988334;28;20286;-41
2022/10/04 11:35:55;;;;;;;39.28;17.17;;;;;;;16.26;73.00;101864.63;4996461;28;20027;-41
2022/10/04 11:38:29;;;;;;;45.72;17.23;;;;;;;16.20;72.89;101865.41;4999502;28;20034;-40
2022/10/04 11:41:14;;;;;;;41.53;18.23;;;;;;;16.13;72.77;101859.91;4999759;28;20030;-41
2022/10/04 11:43:58;;;;;;;40.08;17.58;;;;;;;16.35;72.94;101868.03;4992029;28;20121;-39
2022/10/04 11:47:01;;;;;;;34.35;16.00;;;;;;;17.49;70.95;101865.06;4990773;28;20066;-39
2022/10/04 11:49:56;;;;;;;34.55;15.73;;;;;;;17.87;65.43;101860.00;4980013;28;20101;-41
2022/10/04 11:52:55;;;;;;;35.28;15.35;;;;;;;18.56;63.31;101853.38;4981707;28;20497;-40
2022/10/04 11:55:52;;;;;;;38.92;15.30;;;;;;;19.07;61.19;101846.41;5002577;28;20026;-41
2022/10/04 11:58:36;;;;;;;;;;;;;;;18.47;61.49;101837.44;5001644;28;20041;-41
2022/10/04 12:01:18;;;;;;;31.02;14.45;;;;;;;18.75;61.59;101845.44;4992358;28;19971;-40
2022/10/04 12:04:21;;;;;;;39.85;14.77;;;;;;;18.45;62.73;101832.19;4996519;28;20042;-41
2022/10/04 12:06:53;;;;;;;40.45;15.10;;;;;;;18.06;63.36;101833.88;4999636;28;20114;-41
2022/10/04 12:09:22;;;;;;;32.78;14.38;;;;;;;18.07;62.99;101843.69;5000278;28;20500;-41